Allen, Texas
Current Conditions -  °F | °C
As of 9:56 AM on Friday 21 Nov 2014 (Local Time) from KTKI Reporting Station
Overcast Overcast  
Wind Chill: 62°   Ceiling: 500
Heat Index: 62°   Visibility: 7mi
Dew Point: 59°   Wind: 10mph
Humidity: 90%   Direction: 160°SSE
Pressure: 30.13"   Gusts: NA
Location:  33.1°N, 96.67°W
Report Text: KTKI 211556Z 16009KT 7SM OVC005 17/15 A3013 RMK AO2 T01670150
Loading
Personal Weather Stations






























Interactive Weather Map New forecast layout! Learn more

10-Day Weather Forecast

Advertisements
Track Severe Weather on mobile